createdAt,value
2022-08-02T00:00:40.533Z,100549.25
2022-08-02T00:03:08.276Z,100551.25
2022-08-02T00:05:36.104Z,100556.38
2022-08-02T00:08:04.230Z,100557.34
2022-08-02T00:10:32.314Z,100550.50
2022-08-02T00:13:00.385Z,100554.63
2022-08-02T00:15:28.191Z,100552.91
2022-08-02T00:17:55.898Z,100560.38
2022-08-02T00:20:23.915Z,100556.06
2022-08-02T00:22:52.194Z,100558.06
2022-08-02T00:25:20.363Z,100551.78
2022-08-02T00:27:48.153Z,100554.75
2022-08-02T00:30:16.102Z,100547.00
2022-08-02T00:32:44.037Z,100551.59
2022-08-02T00:35:11.859Z,100541.28
2022-08-02T00:37:44.725Z,100541.56
2022-08-02T00:40:12.753Z,100547.53
2022-08-02T00:42:41.044Z,100546.84
2022-08-02T00:45:09.640Z,100547.97
2022-08-02T00:47:37.378Z,100555.41
2022-08-02T00:50:05.846Z,100558.38
2022-08-02T00:52:33.665Z,100559.50
2022-08-02T00:55:01.641Z,100562.53
2022-08-02T00:57:29.455Z,100566.50
2022-08-02T00:59:57.265Z,100571.47
2022-08-02T01:02:25.229Z,100581.03
2022-08-02T01:04:53.833Z,100577.00
2022-08-02T01:07:21.807Z,100579.81
2022-08-02T01:09:50.197Z,100581.97
2022-08-02T01:12:18.332Z,100578.66
2022-08-02T01:14:52.262Z,100577.94
2022-08-02T01:17:39.467Z,100595.50
2022-08-02T01:20:53.800Z,100587.16
2022-08-02T01:23:46.035Z,100592.84
2022-08-02T01:26:57.893Z,100585.97
2022-08-02T01:29:39.433Z,100592.84
2022-08-02T01:32:19.206Z,100593.44
2022-08-02T01:35:00.107Z,100596.16
2022-08-02T01:37:49.927Z,100597.00
2022-08-02T01:40:27.283Z,100602.34
2022-08-02T01:42:57.798Z,100600.34
2022-08-02T01:45:30.632Z,100605.50
2022-08-02T01:48:01.174Z,100599.69
2022-08-02T01:50:33.591Z,100602.84
2022-08-02T01:53:07.545Z,100602.31
2022-08-02T01:55:57.118Z,100599.44
2022-08-02T01:58:37.533Z,100596.00
2022-08-02T02:01:07.898Z,100588.13
2022-08-02T02:03:41.653Z,100585.16
2022-08-02T02:06:11.570Z,100593.59
2022-08-02T02:08:43.591Z,100593.34
2022-08-02T02:12:06.468Z,100577.03
2022-08-02T02:14:02.682Z,100572.47
2022-08-02T02:16:32.264Z,100575.28
2022-08-02T02:19:03.649Z,100576.19
2022-08-02T02:21:32.251Z,100571.25
2022-08-02T02:24:03.773Z,100561.34
2022-08-02T02:26:35.915Z,100571.50
2022-08-02T02:29:08.890Z,100570.75
2022-08-02T02:31:40.327Z,100579.91
2022-08-02T02:34:26.402Z,100572.44
2022-08-02T02:36:56.577Z,100580.25
2022-08-02T02:39:28.402Z,100571.66
2022-08-02T02:42:01.471Z,100569.22
2022-08-02T02:44:30.984Z,100579.09
2022-08-02T02:47:00.350Z,100584.63
2022-08-02T02:49:31.825Z,100574.19
2022-08-02T02:52:00.098Z,100586.31
2022-08-02T02:54:34.339Z,100594.56
2022-08-02T02:57:06.287Z,100580.53
2022-08-02T02:59:45.358Z,100584.34
2022-08-02T03:02:19.640Z,100592.03
2022-08-02T03:04:55.856Z,100582.41
2022-08-02T03:07:26.922Z,100588.94
2022-08-02T03:09:55.277Z,100592.66
2022-08-02T03:12:30.974Z,100597.97
2022-08-02T03:15:04.544Z,100590.22
2022-08-02T03:17:44.935Z,100599.09
2022-08-02T03:20:16.268Z,100605.75
2022-08-02T03:22:45.408Z,100598.97
2022-08-02T03:25:15.130Z,100592.50
2022-08-02T03:27:42.991Z,100604.56
2022-08-02T03:30:13.170Z,100593.97
2022-08-02T03:32:44.459Z,100594.09
2022-08-02T03:35:22.695Z,100594.25
2022-08-02T03:37:54.200Z,100597.34
2022-08-02T03:40:23.091Z,100594.41
2022-08-02T03:42:51.453Z,100600.06
2022-08-02T03:45:20.674Z,100602.41
2022-08-02T03:47:49.920Z,100599.09
2022-08-02T03:50:19.684Z,100598.84
2022-08-02T03:52:48.439Z,100598.97
2022-08-02T03:55:16.319Z,100601.81
2022-08-02T03:57:44.413Z,100601.81
2022-08-02T04:00:19.643Z,100608.81
2022-08-02T04:02:48.428Z,100608.22
2022-08-02T04:05:18.874Z,100604.78
2022-08-02T04:08:33.043Z,100606.75
2022-08-02T04:10:56.386Z,100615.03
2022-08-02T04:13:35.714Z,100619.44
2022-08-02T04:16:42.586Z,100610.72
2022-08-02T04:19:16.815Z,100614.28
2022-08-02T04:21:51.675Z,100615.16
2022-08-02T04:24:26.685Z,100618.88
2022-08-02T04:26:57.816Z,100625.88
2022-08-02T04:29:33.244Z,100620.59
2022-08-02T04:32:02.701Z,100616.16
2022-08-02T04:34:31.356Z,100615.63
2022-08-02T04:37:00.469Z,100617.97
2022-08-02T04:39:28.485Z,100609.69
2022-08-02T04:41:57.932Z,100625.59
2022-08-02T04:44:26.082Z,100620.88
2022-08-02T04:46:55.400Z,100625.19
2022-08-02T04:49:23.645Z,100620.25
2022-08-02T04:51:51.644Z,100621.72
2022-08-02T04:54:19.621Z,100623.28
2022-08-02T04:56:47.409Z,100622.34
2022-08-02T04:59:15.209Z,100630.19
2022-08-02T05:01:43.129Z,100627.38
2022-08-02T05:04:11.223Z,100630.81
2022-08-02T05:06:39.009Z,100630.66
2022-08-02T05:09:07.047Z,100629.09
2022-08-02T05:11:36.699Z,100632.91
2022-08-02T05:14:05.996Z,100633.19
2022-08-02T05:16:33.953Z,100631.19
2022-08-02T05:19:02.319Z,100629.47
2022-08-02T05:21:31.733Z,100629.34
2022-08-02T05:23:59.955Z,100626.75
2022-08-02T05:26:27.829Z,100614.44
2022-08-02T05:28:55.772Z,100629.94
2022-08-02T05:31:23.537Z,100635.97
2022-08-02T05:33:51.337Z,100637.56
2022-08-02T05:36:19.181Z,100636.47
2022-08-02T05:38:51.045Z,100632.75
2022-08-02T05:41:20.362Z,100636.28
2022-08-02T05:43:48.394Z,100635.19
2022-08-02T05:46:16.388Z,100642.66
2022-08-02T05:48:45.565Z,100641.66
2022-08-02T05:51:24.214Z,100649.41
2022-08-02T05:54:12.232Z,100650.41
2022-08-02T05:57:01.850Z,100662.03
2022-08-02T05:59:32.273Z,100651.16
2022-08-02T06:02:08.667Z,100651.63
2022-08-02T06:05:11.632Z,100651.34
2022-08-02T06:07:46.593Z,100650.63
2022-08-02T06:10:20.255Z,100644.78
2022-08-02T06:13:09.591Z,100648.13
2022-08-02T06:15:52.510Z,100642.78
2022-08-02T06:18:28.381Z,100647.81
2022-08-02T06:21:03.773Z,100651.47
2022-08-02T06:23:58.895Z,100655.66
2022-08-02T06:26:30.356Z,100654.69
2022-08-02T06:28:58.899Z,100655.09
2022-08-02T06:31:26.612Z,100651.88
2022-08-02T06:33:55.225Z,100657.66
2022-08-02T06:36:47.469Z,100659.44
2022-08-02T06:39:39.198Z,100655.66
2022-08-02T06:42:26.808Z,100651.66
2022-08-02T06:44:58.124Z,100647.69
2022-08-02T06:47:26.869Z,100642.41
2022-08-02T06:49:56.741Z,100647.56
2022-08-02T06:52:31.212Z,100645.16
2022-08-02T06:55:05.281Z,100647.88
2022-08-02T06:57:33.944Z,100645.84
2022-08-02T07:00:05.707Z,100644.97
2022-08-02T07:02:39.830Z,100656.13
2022-08-02T07:05:09.224Z,100653.28
2022-08-02T07:07:37.112Z,100659.84
2022-08-02T07:10:05.525Z,100649.78
2022-08-02T07:12:34.991Z,100658.72
2022-08-02T07:15:06.318Z,100651.22
2022-08-02T07:17:35.549Z,100650.81
2022-08-02T07:20:04.631Z,100665.56
2022-08-02T07:22:32.590Z,100668.44
2022-08-02T07:25:01.047Z,100659.41
2022-08-02T07:27:29.516Z,100665.56
2022-08-02T07:29:57.840Z,100664.97
2022-08-02T07:32:29.983Z,100661.66
2022-08-02T07:34:59.421Z,100665.81
2022-08-02T07:37:53.655Z,100668.50
2022-08-02T07:40:21.054Z,100667.19
2022-08-02T07:42:57.847Z,100664.13
2022-08-02T07:45:32.765Z,100664.38
2022-08-02T07:48:04.174Z,100663.91
2022-08-02T07:50:31.966Z,100659.88
2022-08-02T07:53:00.016Z,100653.09
2022-08-02T07:55:31.209Z,100651.47
2022-08-02T07:58:12.422Z,100656.72
2022-08-02T08:00:43.830Z,100658.53
2022-08-02T08:03:12.329Z,100645.56
2022-08-02T08:05:40.874Z,100663.63
2022-08-02T08:08:13.568Z,100661.28
2022-08-02T08:10:45.024Z,100660.66
2022-08-02T08:13:13.235Z,100639.53
2022-08-02T08:15:41.408Z,100646.22
2022-08-02T08:18:22.721Z,100648.31
2022-08-02T08:20:51.714Z,100648.34
2022-08-02T08:23:19.823Z,100645.94
2022-08-02T08:25:48.332Z,100641.22
2022-08-02T08:28:16.923Z,100639.91
2022-08-02T08:30:45.165Z,100632.31
2022-08-02T08:33:13.532Z,100650.03
2022-08-02T08:35:43.276Z,100644.41
2022-08-02T08:38:11.275Z,100645.34
2022-08-02T08:40:39.279Z,100644.19
2022-08-02T08:43:07.117Z,100632.59
2022-08-02T08:45:35.314Z,100634.16
2022-08-02T08:48:16.121Z,100643.13
2022-08-02T08:51:10.591Z,100632.56
2022-08-02T08:53:44.276Z,100625.59
2022-08-02T08:56:16.319Z,100630.88
2022-08-02T08:58:47.618Z,100636.72
2022-08-02T09:01:16.897Z,100629.38
2022-08-02T09:03:46.291Z,100635.38
2022-08-02T09:06:14.334Z,100622.38
2022-08-02T09:08:42.074Z,100629.44
2022-08-02T09:11:20.312Z,100619.53
2022-08-02T09:13:58.639Z,100627.13
2022-08-02T09:16:32.584Z,100630.25
2022-08-02T09:19:17.107Z,100629.72
2022-08-02T09:21:45.149Z,100630.59
2022-08-02T09:24:22.831Z,100636.81
2022-08-02T09:26:51.844Z,100638.84
2022-08-02T09:29:23.923Z,100630.97
2022-08-02T09:31:53.139Z,100630.31
2022-08-02T09:34:22.332Z,100627.38
2022-08-02T09:36:54.405Z,100632.38
2022-08-02T09:39:23.790Z,100613.88
2022-08-02T09:41:51.663Z,100618.72
2022-08-02T09:44:19.369Z,100613.75
2022-08-02T09:46:48.003Z,100607.78
2022-08-02T09:49:18.681Z,100611.75
2022-08-02T09:51:49.022Z,100612.75
2022-08-02T09:54:19.905Z,100606.09
2022-08-02T09:56:57.233Z,100607.34
2022-08-02T09:59:26.571Z,100601.34
2022-08-02T10:02:01.190Z,100583.22
2022-08-02T10:04:34.059Z,100584.06
2022-08-02T10:07:04.898Z,100596.59
2022-08-02T10:09:33.682Z,100590.09
2022-08-02T10:12:01.689Z,100590.44
2022-08-02T10:14:33.824Z,100585.44
2022-08-02T10:17:02.759Z,100591.44
2022-08-02T10:20:00.018Z,100593.88
2022-08-02T10:22:20.055Z,100583.56
2022-08-02T10:24:49.186Z,100582.19
2022-08-02T10:27:20.651Z,100580.63
2022-08-02T10:29:54.943Z,100575.81
2022-08-02T10:32:46.352Z,100571.50
2022-08-02T10:35:25.712Z,100569.75
2022-08-02T10:38:01.168Z,100559.63
2022-08-02T10:40:55.503Z,100571.16
2022-08-02T10:43:32.785Z,100571.69
2022-08-02T10:46:34.334Z,100568.72
2022-08-02T10:52:02.971Z,100563.28
2022-08-02T10:54:44.365Z,100558.41
2022-08-02T10:57:33.852Z,100561.50
2022-08-02T11:00:25.284Z,100556.66
2022-08-02T11:02:53.878Z,100537.16
2022-08-02T11:05:42.563Z,100552.69
2022-08-02T11:08:22.650Z,100555.53
2022-08-02T11:10:50.625Z,100553.66
2022-08-02T11:13:22.194Z,100550.75
2022-08-02T11:16:10.790Z,100548.00
2022-08-02T11:18:51.428Z,100538.06
2022-08-02T11:21:23.479Z,100548.00
2022-08-02T11:23:52.758Z,100545.59
2022-08-02T11:26:32.302Z,100544.03
2022-08-02T11:29:05.254Z,100529.94
2022-08-02T11:31:44.532Z,100529.72
2022-08-02T11:34:36.421Z,100529.84
2022-08-02T11:37:01.704Z,100525.81
2022-08-02T11:39:29.713Z,100521.13
2022-08-02T11:42:00.027Z,100523.28
2022-08-02T11:44:30.686Z,100523.19
2022-08-02T11:47:02.659Z,100513.84
2022-08-02T11:49:31.437Z,100523.06
2022-08-02T11:52:05.440Z,100521.56
2022-08-02T11:54:40.193Z,100516.16
2022-08-02T11:57:22.376Z,100507.88
2022-08-02T11:59:53.335Z,100495.66
2022-08-02T12:02:28.902Z,100505.31
2022-08-02T12:05:02.070Z,100508.53
2022-08-02T12:07:37.060Z,100494.31
2022-08-02T12:10:20.135Z,100501.59
2022-08-02T12:12:58.065Z,100495.66
2022-08-02T12:15:46.527Z,100511.09
2022-08-02T12:18:40.609Z,100501.44
2022-08-02T12:21:24.902Z,100508.06
2022-08-02T12:24:00.792Z,100511.69
2022-08-02T12:26:46.714Z,100507.44
2022-08-02T12:29:14.852Z,100508.00
2022-08-02T12:32:03.983Z,100508.38
2022-08-02T12:34:33.818Z,100498.78
2022-08-02T12:37:04.661Z,100504.97
2022-08-02T12:39:45.671Z,100514.22
2022-08-02T12:42:16.306Z,100517.25
2022-08-02T12:44:59.433Z,100511.09
2022-08-02T12:47:31.404Z,100502.91
2022-08-02T12:50:22.276Z,100501.69
2022-08-02T12:52:51.147Z,100495.56
2022-08-02T12:55:59.494Z,100489.47
2022-08-02T12:58:14.564Z,100485.00
2022-08-02T13:00:55.199Z,100474.44
2022-08-02T13:04:09.555Z,100480.88
2022-08-02T13:06:40.690Z,100487.16
2022-08-02T13:09:00.693Z,100474.22
2022-08-02T13:11:28.935Z,100469.44
2022-08-02T13:13:56.866Z,100471.25
2022-08-02T13:16:30.544Z,100473.44
2022-08-02T13:19:00.035Z,100465.00
2022-08-02T13:21:40.972Z,100468.59
2022-08-02T13:24:33.318Z,100459.69
2022-08-02T13:27:04.466Z,100464.06
2022-08-02T13:29:37.686Z,100458.56
2022-08-02T13:32:06.019Z,100457.72
2022-08-02T13:34:33.954Z,100453.44
2022-08-02T13:37:03.710Z,100452.22
2022-08-02T13:39:31.753Z,100441.22
2022-08-02T13:41:59.576Z,100446.13
2022-08-02T13:44:27.522Z,100441.09
2022-08-02T13:46:55.730Z,100431.34
2022-08-02T13:49:50.190Z,100424.97
2022-08-02T13:52:12.775Z,100439.00
2022-08-02T13:54:41.064Z,100434.53
2022-08-02T13:57:09.014Z,100434.53
2022-08-02T13:59:56.279Z,100426.47
2022-08-02T14:02:25.402Z,100426.69
2022-08-02T14:04:53.306Z,100428.19
2022-08-02T14:10:03.174Z,100415.69
2022-08-02T14:12:30.889Z,100410.19
2022-08-02T14:14:58.798Z,100417.44
2022-08-02T14:17:26.712Z,100414.31
2022-08-02T14:19:54.533Z,100408.81
2022-08-02T14:22:22.898Z,100412.91
2022-08-02T14:24:53.710Z,100415.66
2022-08-02T14:27:21.702Z,100419.06
2022-08-02T14:29:51.338Z,100416.31
2022-08-02T14:32:19.161Z,100408.25
2022-08-02T14:34:46.929Z,100416.69
2022-08-02T14:37:16.237Z,100406.53
2022-08-02T14:40:00.830Z,100415.94
2022-08-02T14:42:30.098Z,100402.38
2022-08-02T14:44:57.925Z,100397.31
2022-08-02T14:47:25.711Z,100394.19
2022-08-02T14:49:53.502Z,100399.13
2022-08-02T14:52:21.378Z,100387.06
2022-08-02T14:54:49.379Z,100383.28
2022-08-02T14:57:17.353Z,100381.00
2022-08-02T14:59:45.566Z,100383.53
2022-08-02T15:02:14.293Z,100389.50
2022-08-02T15:04:43.662Z,100381.47
2022-08-02T15:07:13.748Z,100387.03
2022-08-02T15:09:41.801Z,100393.38
2022-08-02T15:12:11.573Z,100384.75
2022-08-02T15:14:40.670Z,100380.09
2022-08-02T15:17:09.294Z,100375.44
2022-08-02T15:19:58.080Z,100374.38
2022-08-02T15:22:25.636Z,100379.69
2022-08-02T15:24:54.013Z,100372.09
2022-08-02T15:27:21.824Z,100369.13
2022-08-02T15:29:51.116Z,100367.22
2022-08-02T15:32:19.576Z,100369.81
2022-08-02T15:34:47.806Z,100361.72
2022-08-02T15:37:15.590Z,100373.78
2022-08-02T15:39:44.105Z,100374.63
2022-08-02T15:42:12.458Z,100366.38
2022-08-02T15:44:40.694Z,100362.97
2022-08-02T15:47:08.997Z,100361.94
2022-08-02T15:49:41.251Z,100360.03
2022-08-02T15:52:10.295Z,100363.44
2022-08-02T15:54:38.413Z,100351.13
2022-08-02T15:57:06.987Z,100362.19
2022-08-02T15:59:34.849Z,100359.22
2022-08-02T16:02:04.036Z,100362.19
2022-08-02T16:04:32.736Z,100353.53
2022-08-02T16:07:01.618Z,100355.25
2022-08-02T16:09:29.659Z,100353.13
2022-08-02T16:11:57.859Z,100351.22
2022-08-02T16:14:25.764Z,100357.59
2022-08-02T16:16:53.874Z,100355.88
2022-08-02T16:19:47.083Z,100343.16
2022-08-02T16:22:12.495Z,100359.22
2022-08-02T16:24:40.664Z,100351.63
2022-08-02T16:27:08.641Z,100364.34
2022-08-02T16:29:37.428Z,100353.34
2022-08-02T16:32:06.147Z,100352.88
2022-08-02T16:34:50.750Z,100349.06
2022-08-02T16:37:22.587Z,100348.16
2022-08-02T16:39:50.298Z,100350.53
2022-08-02T16:42:25.038Z,100353.94
2022-08-02T16:44:54.910Z,100346.72
2022-08-02T16:47:37.017Z,100339.69
2022-08-02T16:50:11.304Z,100344.09
2022-08-02T16:55:51.925Z,100341.28
2022-08-02T16:58:21.318Z,100336.84
2022-08-02T17:00:49.273Z,100331.72
2022-08-02T17:03:17.107Z,100328.13
2022-08-02T17:05:56.362Z,100336.56
2022-08-02T17:08:32.130Z,100324.03
2022-08-02T17:11:03.110Z,100335.25
2022-08-02T17:13:34.485Z,100340.47
2022-08-02T17:16:26.312Z,100330.41
2022-08-02T17:18:55.264Z,100338.22
2022-08-02T17:21:23.199Z,100341.75
2022-08-02T17:24:04.979Z,100340.41
2022-08-02T17:26:37.843Z,100339.03
2022-08-02T17:29:15.887Z,100330.34
2022-08-02T17:32:05.033Z,100337.28
2022-08-02T17:34:36.987Z,100336.31
2022-08-02T17:37:06.220Z,100345.63
2022-08-02T17:39:43.224Z,100323.69
2022-08-02T17:45:24.856Z,100329.22
2022-08-02T17:48:03.991Z,100333.41
2022-08-02T17:50:34.703Z,100337.94
2022-08-02T17:53:02.883Z,100337.66
2022-08-02T17:55:31.031Z,100336.72
2022-08-02T17:58:00.616Z,100338.31
2022-08-02T18:00:34.611Z,100329.59
2022-08-02T18:03:05.424Z,100323.97
2022-08-02T18:05:40.068Z,100339.31
2022-08-02T18:08:23.600Z,100335.63
2022-08-02T18:10:54.204Z,100338.72
2022-08-02T18:13:23.334Z,100328.69
2022-08-02T18:15:57.189Z,100334.19
2022-08-02T18:18:29.391Z,100339.19
2022-08-02T18:21:16.322Z,100344.41
2022-08-02T18:23:49.362Z,100344.31
2022-08-02T18:26:20.809Z,100331.44
2022-08-02T18:28:49.100Z,100334.25
2022-08-02T18:31:22.530Z,100330.00
2022-08-02T18:33:59.632Z,100346.34
2022-08-02T18:36:30.429Z,100344.88
2022-08-02T18:39:08.361Z,100344.56
2022-08-02T18:41:36.530Z,100348.59
2022-08-02T18:44:06.361Z,100352.09
2022-08-02T18:46:34.274Z,100345.75
2022-08-02T18:49:13.335Z,100340.31
2022-08-02T18:51:43.809Z,100349.22
2022-08-02T18:54:11.844Z,100344.91
2022-08-02T18:56:40.133Z,100340.63
2022-08-02T18:59:07.992Z,100348.19
2022-08-02T19:01:46.945Z,100345.28
2022-08-02T19:04:27.462Z,100337.25
2022-08-02T19:07:07.190Z,100343.63
2022-08-02T19:09:39.830Z,100347.44
2022-08-02T19:12:11.384Z,100341.13
2022-08-02T19:14:40.422Z,100333.94
2022-08-02T19:17:53.903Z,100336.03
2022-08-02T19:19:56.800Z,100335.69
2022-08-02T19:22:25.366Z,100338.59
2022-08-02T19:25:01.176Z,100341.00
2022-08-02T19:27:32.942Z,100342.88
2022-08-02T19:30:07.477Z,100348.19
2022-08-02T19:32:42.116Z,100344.13
2022-08-02T19:35:29.576Z,100354.72
2022-08-02T19:38:10.223Z,100343.44
2022-08-02T19:40:41.791Z,100350.03
2022-08-02T19:44:26.075Z,100342.00
2022-08-02T19:45:59.122Z,100354.47
2022-08-02T19:48:28.220Z,100353.09
2022-08-02T19:51:00.538Z,100354.81
2022-08-02T19:53:47.888Z,100342.63
2022-08-02T19:56:24.859Z,100355.81
2022-08-02T19:58:56.975Z,100360.50
2022-08-02T20:04:14.181Z,100354.78
2022-08-02T20:06:47.770Z,100345.38
2022-08-02T20:09:21.545Z,100365.88
2022-08-02T20:11:54.528Z,100365.00
2022-08-02T20:14:27.630Z,100363.66
2022-08-02T20:16:57.224Z,100367.38
2022-08-02T20:19:25.188Z,100371.09
2022-08-02T20:21:59.447Z,100365.97
2022-08-02T20:24:29.528Z,100369.69
2022-08-02T20:26:59.284Z,100373.16
2022-08-02T20:29:43.170Z,100360.53
2022-08-02T20:32:22.500Z,100373.09
2022-08-02T20:34:51.161Z,100360.25
2022-08-02T20:37:59.722Z,100360.88
2022-08-02T20:40:10.162Z,100358.97
2022-08-02T20:42:47.578Z,100361.13
2022-08-02T20:45:16.863Z,100361.72
2022-08-02T20:47:51.017Z,100363.47
2022-08-02T20:50:38.497Z,100364.19
2022-08-02T20:53:08.858Z,100358.19
2022-08-02T20:55:54.023Z,100366.66
2022-08-02T20:58:26.832Z,100361.56
2022-08-02T21:00:59.261Z,100368.16
2022-08-02T21:03:32.303Z,100373.09
2022-08-02T21:06:15.111Z,100356.56
2022-08-02T21:08:45.971Z,100366.78
2022-08-02T21:11:14.552Z,100360.31
2022-08-02T21:13:46.388Z,100365.38
2022-08-02T21:16:18.450Z,100364.91
2022-08-02T21:18:51.249Z,100362.94
2022-08-02T21:21:18.966Z,100354.84
2022-08-02T21:23:48.943Z,100363.34
2022-08-02T21:26:28.554Z,100364.78
2022-08-02T21:29:03.620Z,100361.78
2022-08-02T21:31:35.857Z,100362.25
2022-08-02T21:34:21.946Z,100359.84
2022-08-02T21:36:50.838Z,100356.16
2022-08-02T21:39:19.079Z,100362.81
2022-08-02T21:41:49.251Z,100360.81
2022-08-02T21:44:19.535Z,100365.72
2022-08-02T21:46:50.385Z,100364.44
2022-08-02T21:49:20.041Z,100366.47
2022-08-02T21:51:50.149Z,100367.47
2022-08-02T21:54:21.245Z,100372.22
2022-08-02T21:56:52.914Z,100364.34
2022-08-02T21:59:25.205Z,100366.66
2022-08-02T22:01:56.746Z,100364.50
2022-08-02T22:04:28.623Z,100368.13
2022-08-02T22:06:57.766Z,100362.25
2022-08-02T22:09:44.485Z,100374.44
2022-08-02T22:12:17.570Z,100366.88
2022-08-02T22:14:54.225Z,100372.47
2022-08-02T22:17:30.438Z,100374.06
2022-08-02T22:20:19.606Z,100380.09
2022-08-02T22:22:52.538Z,100393.59
2022-08-02T22:25:27.212Z,100383.13
2022-08-02T22:28:37.714Z,100391.56
2022-08-02T22:31:04.474Z,100381.41
2022-08-02T22:34:00.317Z,100379.28
2022-08-02T22:36:38.665Z,100384.00
2022-08-02T22:39:19.378Z,100382.56
2022-08-02T22:42:05.929Z,100387.41
2022-08-02T22:44:35.603Z,100376.28
2022-08-02T22:47:07.522Z,100391.44
2022-08-02T22:49:51.669Z,100389.88
2022-08-02T22:52:24.201Z,100398.72
2022-08-02T22:54:52.326Z,100397.88
2022-08-02T22:57:30.610Z,100390.31
2022-08-02T22:58:39.899Z,100325.31
2022-08-02T22:58:54.159Z,100358.59
2022-08-02T23:00:00.653Z,100395.16
2022-08-02T23:02:28.458Z,100391.88
2022-08-02T23:04:58.241Z,100398.47
2022-08-02T23:07:26.394Z,100398.88
2022-08-02T23:09:54.744Z,100395.56
2022-08-02T23:12:22.834Z,100399.47
2022-08-02T23:14:51.644Z,100399.59
2022-08-02T23:17:38.881Z,100400.59
2022-08-02T23:20:09.685Z,100397.44
2022-08-02T23:22:38.165Z,100404.13
2022-08-02T23:25:07.659Z,100395.13
2022-08-02T23:27:36.049Z,100398.97
2022-08-02T23:30:05.297Z,100404.56
2022-08-02T23:32:33.073Z,100392.50
2022-08-02T23:35:01.077Z,100407.38
2022-08-02T23:37:28.932Z,100398.78
2022-08-02T23:40:38.729Z,100402.06
2022-08-02T23:43:14.356Z,100408.63
2022-08-02T23:45:45.240Z,100415.34
2022-08-02T23:48:13.259Z,100410.03
2022-08-02T23:50:41.116Z,100402.31
2022-08-02T23:53:09.037Z,100414.16
2022-08-02T23:55:36.916Z,100411.00
2022-08-02T23:58:04.836Z,100405.72
